createdAt,value
2023-02-24T00:02:01.400Z,8.18
2023-02-24T00:04:38.672Z,8.14
2023-02-24T00:07:06.711Z,8.09
2023-02-24T00:09:33.590Z,8.06
2023-02-24T00:12:03.582Z,8.02
2023-02-24T00:14:33.727Z,7.99
2023-02-24T00:17:00.859Z,7.95
2023-02-24T00:19:32.789Z,7.92
2023-02-24T00:22:01.189Z,7.89
2023-02-24T00:24:28.750Z,7.86
2023-02-24T00:27:01.150Z,7.84
2023-02-24T00:29:29.497Z,7.81
2023-02-24T00:32:01.135Z,7.80
2023-02-24T00:34:34.064Z,7.78
2023-02-24T00:37:01.388Z,7.78
2023-02-24T00:39:30.524Z,7.76
2023-02-24T00:42:06.859Z,7.75
2023-02-24T00:44:44.460Z,7.74
2023-02-24T00:47:12.167Z,7.75
2023-02-24T00:49:42.453Z,7.75
2023-02-24T00:52:14.459Z,7.77
2023-02-24T00:54:42.476Z,7.78
2023-02-24T00:57:09.403Z,7.80
2023-02-24T00:59:37.273Z,7.82
2023-02-24T01:02:07.024Z,7.84
2023-02-24T01:04:34.436Z,7.86
2023-02-24T01:07:01.681Z,7.90
2023-02-24T01:09:30.614Z,7.93
2023-02-24T01:12:16.514Z,7.95
2023-02-24T01:14:47.912Z,7.99
2023-02-24T01:17:16.595Z,8.01
2023-02-24T01:19:44.771Z,8.04
2023-02-24T01:22:15.057Z,8.06
2023-02-24T01:24:43.372Z,8.07
2023-02-24T01:27:12.777Z,8.07
2023-02-24T01:29:39.606Z,8.08
2023-02-24T01:32:13.001Z,8.09
2023-02-24T01:34:42.578Z,8.11
2023-02-24T01:37:10.385Z,8.15
2023-02-24T01:39:37.522Z,8.18
2023-02-24T01:42:06.407Z,8.21
2023-02-24T01:44:33.292Z,8.23
2023-02-24T01:47:03.987Z,8.23
2023-02-24T01:49:41.268Z,8.27
2023-02-24T01:52:12.727Z,8.29
2023-02-24T01:54:49.186Z,8.30
2023-02-24T01:57:21.251Z,8.33
2023-02-24T01:59:52.290Z,8.35
2023-02-24T02:02:20.046Z,8.36
2023-02-24T02:04:57.149Z,8.37
2023-02-24T02:07:28.564Z,8.39
2023-02-24T02:10:00.272Z,8.41
2023-02-24T02:12:28.517Z,8.45
2023-02-24T02:14:59.472Z,8.45
2023-02-24T02:17:33.255Z,8.48
2023-02-24T02:20:00.528Z,8.50
2023-02-24T02:22:42.401Z,8.53
2023-02-24T02:25:16.101Z,8.55
2023-02-24T02:28:12.036Z,8.54
2023-02-24T02:30:39.345Z,8.56
2023-02-24T02:33:27.691Z,8.57
2023-02-24T02:36:07.466Z,8.56
2023-02-24T02:38:49.257Z,8.56
2023-02-24T02:41:51.835Z,8.55
2023-02-24T02:44:24.720Z,8.53
2023-02-24T02:47:00.569Z,8.52
2023-02-24T02:49:35.708Z,8.51
2023-02-24T02:52:15.505Z,8.51
2023-02-24T02:54:52.942Z,8.51
2023-02-24T02:57:29.621Z,8.49
2023-02-24T03:00:21.354Z,8.45
2023-02-24T03:02:52.076Z,8.43
2023-02-24T03:05:29.733Z,8.39
2023-02-24T03:08:00.806Z,8.37
2023-02-24T03:10:32.456Z,8.35
2023-02-24T03:13:01.750Z,8.31
2023-02-24T03:15:32.806Z,8.26
2023-02-24T03:18:10.439Z,8.21
2023-02-24T03:20:43.778Z,8.17
2023-02-24T03:23:21.884Z,8.13
2023-02-24T03:26:01.528Z,8.08
2023-02-24T03:28:45.060Z,8.04
2023-02-24T03:31:51.009Z,7.95
2023-02-24T03:34:42.863Z,7.89
2023-02-24T03:37:09.787Z,7.83
2023-02-24T03:39:36.652Z,7.79
2023-02-24T03:42:15.661Z,7.74
2023-02-24T03:44:42.292Z,7.69
2023-02-24T03:47:09.656Z,7.63
2023-02-24T03:49:38.448Z,7.57
2023-02-24T03:52:23.296Z,7.49
2023-02-24T03:54:59.158Z,7.41
2023-02-24T03:57:54.807Z,7.34
2023-02-24T04:00:38.512Z,7.30
2023-02-24T04:03:14.352Z,7.26
2023-02-24T04:05:53.489Z,7.21
2023-02-24T04:08:23.409Z,7.17
2023-02-24T04:11:05.681Z,7.15
2023-02-24T04:13:46.492Z,7.08
2023-02-24T04:16:28.940Z,6.99
2023-02-24T04:19:03.724Z,6.92
2023-02-24T04:21:33.514Z,6.88
2023-02-24T04:24:08.592Z,6.85
2023-02-24T04:26:40.528Z,6.82
2023-02-24T04:29:09.807Z,6.75
2023-02-24T04:31:39.167Z,6.67
2023-02-24T04:34:09.529Z,6.63
2023-02-24T04:36:38.896Z,6.59
2023-02-24T04:39:07.204Z,6.58
2023-02-24T04:41:35.826Z,6.58
2023-02-24T04:44:02.526Z,6.59
2023-02-24T04:46:32.541Z,6.60
2023-02-24T04:49:00.407Z,6.61
2023-02-24T04:51:26.941Z,6.62
2023-02-24T04:53:55.458Z,6.65
2023-02-24T04:56:22.464Z,6.66
2023-02-24T04:58:49.117Z,6.67
2023-02-24T05:01:15.739Z,6.66
2023-02-24T05:03:42.818Z,6.67
2023-02-24T05:06:16.225Z,6.68
2023-02-24T05:08:43.644Z,6.68
2023-02-24T05:11:16.089Z,6.70
2023-02-24T05:13:45.920Z,6.72
2023-02-24T05:16:15.118Z,6.75
2023-02-24T05:18:42.723Z,6.77
2023-02-24T05:21:32.669Z,6.79
2023-02-24T05:23:59.806Z,6.81
2023-02-24T05:26:26.763Z,6.84
2023-02-24T05:28:56.672Z,6.86
2023-02-24T05:31:26.508Z,6.88
2023-02-24T05:33:58.448Z,6.91
2023-02-24T05:36:27.021Z,6.94
2023-02-24T05:39:07.708Z,6.98
2023-02-24T05:41:38.856Z,7.00
2023-02-24T05:44:13.473Z,7.03
2023-02-24T05:46:44.580Z,7.06
2023-02-24T05:49:23.604Z,7.06
2023-02-24T05:51:55.241Z,7.07
2023-02-24T05:54:29.424Z,7.08
2023-02-24T05:57:02.377Z,7.10
2023-02-24T05:59:38.117Z,7.13
2023-02-24T06:02:07.721Z,7.13
2023-02-24T06:04:53.746Z,7.14
2023-02-24T06:07:25.893Z,7.14
2023-02-24T06:09:57.876Z,7.17
2023-02-24T06:12:26.729Z,7.18
2023-02-24T06:14:53.786Z,7.20
2023-02-24T06:17:21.538Z,7.23
2023-02-24T06:19:50.644Z,7.24
2023-02-24T06:22:20.238Z,7.25
2023-02-24T06:24:49.288Z,7.25
2023-02-24T06:27:21.456Z,7.25
2023-02-24T06:29:50.917Z,7.25
2023-02-24T06:32:23.859Z,7.27
2023-02-24T06:34:51.858Z,7.29
2023-02-24T06:37:18.440Z,7.31
2023-02-24T06:39:45.643Z,7.33
2023-02-24T06:42:13.200Z,7.33
2023-02-24T06:44:41.290Z,7.33
2023-02-24T06:47:13.171Z,7.34
2023-02-24T06:49:39.980Z,7.34
2023-02-24T06:52:06.604Z,7.37
2023-02-24T06:54:35.960Z,7.38
2023-02-24T06:57:03.482Z,7.40
2023-02-24T06:59:30.306Z,7.39
2023-02-24T07:01:58.374Z,7.40
2023-02-24T07:04:28.279Z,7.38
2023-02-24T07:06:58.312Z,7.40
2023-02-24T07:09:27.084Z,7.43
2023-02-24T07:11:56.098Z,7.46
2023-02-24T07:14:27.995Z,7.49
2023-02-24T07:16:55.172Z,7.52
2023-02-24T07:19:32.387Z,7.55
2023-02-24T07:22:03.398Z,7.58
2023-02-24T07:24:36.542Z,7.61
2023-02-24T07:27:06.412Z,7.62
2023-02-24T07:29:34.585Z,7.64
2023-02-24T07:32:05.586Z,7.66
2023-02-24T07:34:33.936Z,7.67
2023-02-24T07:37:06.620Z,7.69
2023-02-24T07:39:34.133Z,7.72
2023-02-24T07:42:00.667Z,7.74
2023-02-24T07:44:29.304Z,7.78
2023-02-24T07:46:56.914Z,7.79
2023-02-24T07:49:30.049Z,7.80
2023-02-24T07:51:58.010Z,7.80
2023-02-24T07:54:27.734Z,7.83
2023-02-24T07:56:57.699Z,7.85
2023-02-24T07:59:30.172Z,7.88
2023-02-24T08:01:57.483Z,7.91
2023-02-24T08:04:27.841Z,7.92
2023-02-24T08:06:59.114Z,7.96
2023-02-24T08:09:47.011Z,7.97
2023-02-24T08:12:21.627Z,8.01
2023-02-24T08:14:53.451Z,8.04
2023-02-24T08:17:26.578Z,8.08
2023-02-24T08:20:14.829Z,8.12
2023-02-24T08:22:44.460Z,8.14
2023-02-24T08:25:18.615Z,8.18
2023-02-24T08:28:06.737Z,8.20
2023-02-24T08:30:40.853Z,8.23
2023-02-24T08:33:11.118Z,8.28
2023-02-24T08:35:44.463Z,8.33
2023-02-24T08:38:25.952Z,8.36
2023-02-24T08:40:55.739Z,8.42
2023-02-24T08:43:33.189Z,8.45
2023-02-24T08:46:25.634Z,8.49
2023-02-24T08:48:57.815Z,8.52
2023-02-24T08:51:35.457Z,8.55
2023-02-24T08:54:15.590Z,8.60
2023-02-24T08:56:44.761Z,8.65
2023-02-24T08:59:29.116Z,8.68
2023-02-24T09:02:17.487Z,8.70
2023-02-24T09:05:00.133Z,8.72
2023-02-24T09:07:41.153Z,8.72
2023-02-24T09:10:17.910Z,8.75
2023-02-24T09:12:45.174Z,8.78
2023-02-24T09:15:15.429Z,8.81
2023-02-24T09:17:45.506Z,8.82
2023-02-24T09:20:59.356Z,8.83
2023-02-24T09:23:45.862Z,8.86
2023-02-24T09:26:14.145Z,8.88
2023-02-24T09:28:54.799Z,8.92
2023-02-24T09:31:24.646Z,8.95
2023-02-24T09:33:51.484Z,8.97
2023-02-24T09:36:30.097Z,9.01
2023-02-24T09:38:59.292Z,9.03
2023-02-24T09:41:53.867Z,9.07
2023-02-24T09:44:45.886Z,9.10
2023-02-24T09:47:18.847Z,9.12
2023-02-24T09:49:59.091Z,9.13
2023-02-24T09:52:43.219Z,9.17
2023-02-24T09:55:35.815Z,9.19
2023-02-24T09:58:43.779Z,9.19
2023-02-24T10:01:57.094Z,9.20
2023-02-24T10:04:40.676Z,9.20
2023-02-24T10:07:15.607Z,9.23
2023-02-24T10:10:20.602Z,9.24
2023-02-24T10:12:52.857Z,9.27
2023-02-24T10:15:47.193Z,9.28
2023-02-24T10:18:41.069Z,9.29
2023-02-24T10:21:30.803Z,9.31
2023-02-24T10:24:15.814Z,9.31
2023-02-24T10:27:00.746Z,9.33
2023-02-24T10:29:43.388Z,9.36
2023-02-24T10:32:33.888Z,9.37
2023-02-24T10:35:03.697Z,9.39
2023-02-24T10:37:30.443Z,9.39
2023-02-24T10:40:09.584Z,9.41
2023-02-24T10:42:44.499Z,9.43
2023-02-24T10:45:18.489Z,9.46
2023-02-24T10:47:56.691Z,9.49
2023-02-24T10:50:54.922Z,9.51
2023-02-24T10:53:28.692Z,9.54
2023-02-24T10:56:27.398Z,9.58
2023-02-24T10:59:25.549Z,9.60
2023-02-24T11:02:24.654Z,9.62
2023-02-24T11:05:04.440Z,9.64
2023-02-24T11:07:46.899Z,9.66
2023-02-24T11:10:26.395Z,9.67
2023-02-24T11:13:13.776Z,9.70
2023-02-24T11:16:12.305Z,9.71
2023-02-24T11:18:40.331Z,9.74
2023-02-24T11:21:11.155Z,9.75
2023-02-24T11:23:45.062Z,9.78
2023-02-24T11:26:23.568Z,9.80
2023-02-24T11:29:00.995Z,9.82
2023-02-24T11:31:45.771Z,9.83
2023-02-24T11:34:30.785Z,9.82
2023-02-24T11:37:20.460Z,9.80
2023-02-24T11:40:05.533Z,9.79
2023-02-24T11:42:39.033Z,9.81
2023-02-24T11:45:27.584Z,9.82
2023-02-24T11:48:19.925Z,9.83
2023-02-24T11:51:07.258Z,9.82
2023-02-24T11:53:51.707Z,9.82
2023-02-24T11:56:39.933Z,9.80
2023-02-24T11:59:25.382Z,9.80
2023-02-24T12:02:08.050Z,9.79
2023-02-24T12:04:46.435Z,9.77
2023-02-24T12:07:28.431Z,9.77
2023-02-24T12:10:14.037Z,9.79
2023-02-24T12:12:51.834Z,9.78
2023-02-24T12:15:26.620Z,9.81
2023-02-24T12:18:14.762Z,9.83
2023-02-24T12:20:48.279Z,9.83
2023-02-24T12:23:21.062Z,9.83
2023-02-24T12:26:09.122Z,9.85
2023-02-24T12:28:58.973Z,9.88
2023-02-24T12:31:53.525Z,9.91
2023-02-24T12:34:43.517Z,9.91
2023-02-24T12:37:22.266Z,9.94
2023-02-24T12:40:01.390Z,9.98
2023-02-24T12:42:41.236Z,10.00
2023-02-24T12:45:38.269Z,10.02
2023-02-24T12:48:23.667Z,10.04
2023-02-24T12:51:07.504Z,10.05
2023-02-24T12:53:49.867Z,10.05
2023-02-24T12:56:35.286Z,10.05
2023-02-24T12:59:05.526Z,10.04
2023-02-24T13:01:47.383Z,10.03
2023-02-24T13:04:37.489Z,10.01
2023-02-24T13:07:17.739Z,10.01
2023-02-24T13:10:30.303Z,10.00
2023-02-24T13:13:25.563Z,10.03
2023-02-24T13:15:54.906Z,10.06
2023-02-24T13:18:39.557Z,10.09
2023-02-24T13:21:19.444Z,10.13
2023-02-24T13:24:21.435Z,10.17
2023-02-24T13:26:48.166Z,10.20
2023-02-24T13:29:16.542Z,10.21
2023-02-24T13:31:51.558Z,10.23
2023-02-24T13:34:44.327Z,10.24
2023-02-24T13:37:11.486Z,10.29
2023-02-24T13:39:44.370Z,10.32
2023-02-24T13:42:20.015Z,10.37
2023-02-24T13:45:13.316Z,10.42
2023-02-24T13:48:07.350Z,10.48
2023-02-24T13:50:55.797Z,10.55
2023-02-24T13:53:34.248Z,10.60
2023-02-24T13:56:20.128Z,10.63
2023-02-24T13:59:15.869Z,10.66
2023-02-24T14:01:49.789Z,10.71
2023-02-24T14:04:32.037Z,10.71
2023-02-24T14:07:04.709Z,10.75
2023-02-24T14:09:38.612Z,10.78
2023-02-24T14:12:18.253Z,10.85
2023-02-24T14:14:46.353Z,10.89
2023-02-24T14:17:26.378Z,10.97
2023-02-24T14:19:53.016Z,11.05
2023-02-24T14:22:21.409Z,11.17
2023-02-24T14:24:48.231Z,11.29
2023-02-24T14:27:26.023Z,11.44
2023-02-24T14:29:53.280Z,11.59
2023-02-24T14:32:23.480Z,11.75
2023-02-24T14:34:50.961Z,11.88
2023-02-24T14:37:23.021Z,11.96
2023-02-24T14:39:55.192Z,11.97
2023-02-24T14:42:22.653Z,11.97
2023-02-24T14:44:52.247Z,11.96
2023-02-24T14:47:21.444Z,11.99
2023-02-24T14:49:59.873Z,12.05
2023-02-24T14:52:26.798Z,12.07
2023-02-24T14:54:58.304Z,12.07
2023-02-24T14:57:29.592Z,12.05
2023-02-24T15:00:11.397Z,12.04
2023-02-24T15:02:45.098Z,12.06
2023-02-24T15:05:12.133Z,12.08
2023-02-24T15:07:39.893Z,12.09
2023-02-24T15:10:07.888Z,12.11
2023-02-24T15:12:47.297Z,12.14
2023-02-24T15:15:16.905Z,12.15
2023-02-24T15:17:43.846Z,12.16
2023-02-24T15:20:26.409Z,12.13
2023-02-24T15:22:52.996Z,12.09
2023-02-24T15:25:33.759Z,11.99
2023-02-24T15:28:34.497Z,11.86
2023-02-24T15:31:19.499Z,11.71
2023-02-24T15:33:55.317Z,11.58
2023-02-24T15:36:25.575Z,11.50
2023-02-24T15:38:56.820Z,11.45
2023-02-24T15:41:23.922Z,11.40
2023-02-24T15:43:56.418Z,11.36
2023-02-24T15:46:29.878Z,11.32
2023-02-24T15:48:58.266Z,11.30
2023-02-24T15:51:27.881Z,11.27
2023-02-24T15:53:54.720Z,11.24
2023-02-24T15:56:21.513Z,11.21
2023-02-24T15:58:48.295Z,11.16
2023-02-24T16:01:14.973Z,11.12
2023-02-24T16:03:41.768Z,11.11
2023-02-24T16:06:19.179Z,11.10
2023-02-24T16:08:48.361Z,11.13
2023-02-24T16:11:19.302Z,11.14
2023-02-24T16:13:52.900Z,11.17
2023-02-24T16:16:21.152Z,11.20
2023-02-24T16:18:48.044Z,11.22
2023-02-24T16:21:14.560Z,11.27
2023-02-24T16:23:41.203Z,11.30
2023-02-24T16:26:20.315Z,11.32
2023-02-24T16:28:56.387Z,11.32
2023-02-24T16:31:27.245Z,11.31
2023-02-24T16:33:55.808Z,11.31
2023-02-24T16:36:25.326Z,11.31
2023-02-24T16:38:52.445Z,11.31
2023-02-24T16:41:19.305Z,11.33
2023-02-24T16:43:46.016Z,11.31
2023-02-24T16:46:19.662Z,11.30
2023-02-24T16:48:49.872Z,11.29
2023-02-24T16:51:16.995Z,11.26
2023-02-24T16:53:45.159Z,11.23
2023-02-24T16:56:12.623Z,11.20
2023-02-24T16:58:39.562Z,11.16
2023-02-24T17:01:06.338Z,11.14
2023-02-24T17:03:44.917Z,11.10
2023-02-24T17:06:11.666Z,11.07
2023-02-24T17:08:38.798Z,11.03
2023-02-24T17:11:05.549Z,11.00
2023-02-24T17:13:32.083Z,10.99
2023-02-24T17:15:58.822Z,10.97
2023-02-24T17:18:26.282Z,10.93
2023-02-24T17:20:53.541Z,10.90
2023-02-24T17:23:20.162Z,10.88
2023-02-24T17:25:53.872Z,10.86
2023-02-24T17:28:20.810Z,10.81
2023-02-24T17:30:47.542Z,10.78
2023-02-24T17:33:14.547Z,10.74
2023-02-24T17:35:42.460Z,10.72
2023-02-24T17:38:13.742Z,10.69
2023-02-24T17:40:41.773Z,10.67
2023-02-24T17:43:08.404Z,10.65
2023-02-24T17:45:35.113Z,10.63
2023-02-24T17:48:02.085Z,10.57
2023-02-24T17:50:28.792Z,10.52
2023-02-24T17:52:56.748Z,10.45
2023-02-24T17:55:23.552Z,10.40
2023-02-24T17:57:50.175Z,10.36
2023-02-24T18:00:17.420Z,10.31
2023-02-24T18:02:44.321Z,10.25
2023-02-24T18:05:11.098Z,10.21
2023-02-24T18:07:37.853Z,10.15
2023-02-24T18:10:05.301Z,10.12
2023-02-24T18:12:31.929Z,10.09
2023-02-24T18:15:07.898Z,10.07
2023-02-24T18:17:36.682Z,10.08
2023-02-24T18:20:08.370Z,10.07
2023-02-24T18:22:35.647Z,10.06
2023-02-24T18:25:02.383Z,10.06
2023-02-24T18:27:29.055Z,10.08
2023-02-24T18:29:55.853Z,10.04
2023-02-24T18:32:22.648Z,10.00
2023-02-24T18:34:49.524Z,9.96
2023-02-24T18:37:16.120Z,9.95
2023-02-24T18:39:42.763Z,9.94
2023-02-24T18:42:09.827Z,9.94
2023-02-24T18:44:36.647Z,9.93
2023-02-24T18:47:09.339Z,9.93
2023-02-24T18:49:36.523Z,9.92
2023-02-24T18:52:05.362Z,9.92
2023-02-24T18:54:32.811Z,9.87
2023-02-24T18:56:59.447Z,9.83
2023-02-24T18:59:26.084Z,9.81
2023-02-24T19:01:54.023Z,9.81
2023-02-24T19:04:20.689Z,9.83
2023-02-24T19:06:49.119Z,9.83
2023-02-24T19:09:16.607Z,9.84
2023-02-24T19:11:43.262Z,9.84
2023-02-24T19:14:12.176Z,9.85
2023-02-24T19:16:38.866Z,9.85
2023-02-24T19:19:05.933Z,9.83
2023-02-24T19:21:33.697Z,9.83
2023-02-24T19:24:03.996Z,9.84
2023-02-24T19:26:30.858Z,9.84
2023-02-24T19:28:58.628Z,9.81
2023-02-24T19:31:28.595Z,9.77
2023-02-24T19:33:57.127Z,9.73
2023-02-24T19:36:24.574Z,9.67
2023-02-24T19:38:51.824Z,9.63
2023-02-24T19:41:18.565Z,9.59
2023-02-24T19:43:45.512Z,9.57
2023-02-24T19:46:14.057Z,9.52
2023-02-24T19:48:41.140Z,9.52
2023-02-24T19:51:22.219Z,9.52
2023-02-24T19:53:52.837Z,9.52
2023-02-24T19:56:27.955Z,9.49
2023-02-24T19:58:59.526Z,9.48
2023-02-24T20:01:28.164Z,9.46
2023-02-24T20:04:00.584Z,9.39
2023-02-24T20:06:33.595Z,9.33
2023-02-24T20:09:01.022Z,9.27
2023-02-24T20:11:32.984Z,9.21
2023-02-24T20:13:59.622Z,9.15
2023-02-24T20:16:27.253Z,9.09
2023-02-24T20:18:55.302Z,9.02
2023-02-24T20:21:22.190Z,8.97
2023-02-24T20:23:48.934Z,8.92
2023-02-24T20:26:16.493Z,8.87
2023-02-24T20:28:44.438Z,8.85
2023-02-24T20:31:15.335Z,8.83
2023-02-24T20:33:43.601Z,8.80
2023-02-24T20:36:13.490Z,8.79
2023-02-24T20:38:40.114Z,8.78
2023-02-24T20:41:07.266Z,8.78
2023-02-24T20:43:34.621Z,8.79
2023-02-24T20:46:11.976Z,8.80
2023-02-24T20:48:38.641Z,8.82
2023-02-24T20:51:06.304Z,8.83
2023-02-24T20:53:34.584Z,8.87
2023-02-24T20:56:14.295Z,8.90
2023-02-24T20:58:41.265Z,8.96
2023-02-24T21:01:11.014Z,9.01
2023-02-24T21:03:39.664Z,9.07
2023-02-24T21:06:10.126Z,9.11
2023-02-24T21:08:37.436Z,9.15
2023-02-24T21:11:05.208Z,9.15
2023-02-24T21:13:31.729Z,9.13
2023-02-24T21:15:58.435Z,9.12
2023-02-24T21:18:25.105Z,9.10
2023-02-24T21:20:55.122Z,9.09
2023-02-24T21:23:21.870Z,9.06
2023-02-24T21:25:55.356Z,9.04
2023-02-24T21:28:23.538Z,9.04
2023-02-24T21:30:50.703Z,9.05
2023-02-24T21:33:18.545Z,9.08
2023-02-24T21:35:56.028Z,9.07
2023-02-24T21:38:22.559Z,9.10
2023-02-24T21:40:49.103Z,9.12
2023-02-24T21:43:15.841Z,9.12
2023-02-24T21:45:42.473Z,9.08
2023-02-24T21:48:34.707Z,9.04
2023-02-24T21:51:05.455Z,9.03
2023-02-24T21:53:35.435Z,9.01
2023-02-24T21:56:16.761Z,8.99
2023-02-24T21:58:49.215Z,8.99
2023-02-24T22:01:22.433Z,8.96
2023-02-24T22:03:49.033Z,8.92
2023-02-24T22:06:19.904Z,8.89
2023-02-24T22:08:46.918Z,8.87
2023-02-24T22:11:16.729Z,8.85
2023-02-24T22:13:44.903Z,8.80
2023-02-24T22:16:20.363Z,8.80
2023-02-24T22:18:48.412Z,8.78
2023-02-24T22:21:17.712Z,8.75
2023-02-24T22:23:45.576Z,8.72
2023-02-24T22:26:13.238Z,8.71
2023-02-24T22:28:41.719Z,8.70
2023-02-24T22:31:10.593Z,8.71
2023-02-24T22:33:40.902Z,8.70
2023-02-24T22:36:10.638Z,8.71
2023-02-24T22:38:38.554Z,8.70
2023-02-24T22:41:12.513Z,8.68
2023-02-24T22:43:39.112Z,8.65
2023-02-24T22:46:08.654Z,8.63
2023-02-24T22:48:36.735Z,8.62
2023-02-24T22:51:05.823Z,8.60
2023-02-24T22:53:34.787Z,8.56
2023-02-24T22:56:01.768Z,8.56
2023-02-24T22:58:28.477Z,8.54
2023-02-24T23:00:55.414Z,8.52
2023-02-24T23:03:25.260Z,8.51
2023-02-24T23:06:02.592Z,8.49
2023-02-24T23:08:35.833Z,8.45
2023-02-24T23:11:18.358Z,8.40
2023-02-24T23:13:49.031Z,8.39
2023-02-24T23:16:18.893Z,8.37
2023-02-24T23:18:50.900Z,8.36
2023-02-24T23:21:20.548Z,8.34
2023-02-24T23:23:47.388Z,8.34
2023-02-24T23:26:14.432Z,8.35
2023-02-24T23:28:41.217Z,8.34
2023-02-24T23:31:07.950Z,8.33
2023-02-24T23:33:34.971Z,8.29
2023-02-24T23:36:08.142Z,8.25
2023-02-24T23:38:34.749Z,8.21
2023-02-24T23:41:01.317Z,8.18
2023-02-24T23:43:46.123Z,8.17
2023-02-24T23:46:22.119Z,8.15
2023-02-24T23:48:53.615Z,8.12
2023-02-24T23:51:20.702Z,8.09
2023-02-24T23:53:48.601Z,8.07
2023-02-24T23:56:16.673Z,8.08
2023-02-24T23:58:44.328Z,8.05
